createdAt,value
2023-01-28T00:00:02.705Z,6.00
2023-01-28T00:02:32.448Z,7.45
2023-01-28T00:04:59.582Z,7.38
2023-01-28T00:07:26.765Z,6.78
2023-01-28T00:09:54.218Z,6.93
2023-01-28T00:12:21.462Z,6.40
2023-01-28T00:14:48.580Z,6.07
2023-01-28T00:17:15.791Z,6.97
2023-01-28T00:19:42.882Z,6.50
2023-01-28T00:22:10.031Z,7.38
2023-01-28T00:24:37.131Z,7.03
2023-01-28T00:27:04.237Z,6.43
2023-01-28T00:29:31.384Z,7.57
2023-01-28T00:31:58.679Z,8.60
2023-01-28T00:34:29.633Z,7.32
2023-01-28T00:36:59.640Z,6.72
2023-01-28T00:39:27.427Z,7.10
2023-01-28T00:41:55.000Z,6.80
2023-01-28T00:44:25.085Z,6.85
2023-01-28T00:46:52.174Z,6.65
2023-01-28T00:49:22.722Z,7.55
2023-01-28T00:51:49.939Z,6.63
2023-01-28T00:54:17.159Z,6.72
2023-01-28T00:56:44.373Z,5.45
2023-01-28T00:59:12.233Z,6.10
2023-01-28T01:01:39.843Z,8.70
2023-01-28T01:04:06.980Z,7.20
2023-01-28T01:06:37.887Z,6.00
2023-01-28T01:09:08.524Z,7.13
2023-01-28T01:11:36.327Z,6.13
2023-01-28T01:14:05.290Z,5.50
2023-01-28T01:16:33.643Z,5.75
2023-01-28T01:19:01.008Z,6.65
2023-01-28T01:21:30.095Z,5.38
2023-01-28T01:23:57.571Z,6.22
2023-01-28T01:26:27.415Z,6.20
2023-01-28T01:28:54.617Z,6.53
2023-01-28T01:31:22.907Z,6.05
2023-01-28T01:33:52.699Z,4.93
2023-01-28T01:36:25.059Z,5.45
2023-01-28T01:38:55.754Z,5.47
2023-01-28T01:41:30.404Z,5.57
2023-01-28T01:44:03.210Z,5.38
2023-01-28T01:46:33.459Z,4.72
2023-01-28T01:49:11.857Z,4.82
2023-01-28T01:51:39.756Z,6.20
2023-01-28T01:54:07.514Z,5.32
2023-01-28T01:56:40.876Z,5.80
2023-01-28T01:59:14.880Z,5.07
2023-01-28T02:01:42.971Z,5.65
2023-01-28T02:04:32.758Z,5.28
2023-01-28T02:07:02.114Z,4.32
2023-01-28T02:09:32.396Z,4.53
2023-01-28T02:12:04.770Z,5.13
2023-01-28T02:14:37.726Z,5.63
2023-01-28T02:17:06.953Z,4.80
2023-01-28T02:19:51.900Z,5.68
2023-01-28T02:22:24.713Z,5.57
2023-01-28T02:25:23.287Z,4.63
2023-01-28T02:28:17.556Z,4.45
2023-01-28T02:30:53.354Z,4.50
2023-01-28T02:33:36.095Z,4.13
2023-01-28T02:36:18.247Z,5.28
2023-01-28T02:38:51.438Z,4.35
2023-01-28T02:41:25.880Z,4.22
2023-01-28T02:43:53.015Z,4.72
2023-01-28T02:46:44.038Z,4.38
2023-01-28T02:49:20.341Z,3.90
2023-01-28T02:52:14.850Z,3.95
2023-01-28T02:55:20.184Z,4.55
2023-01-28T02:57:58.426Z,4.40
2023-01-28T03:00:31.767Z,3.05
2023-01-28T03:03:17.512Z,3.92
2023-01-28T03:06:08.530Z,3.50
2023-01-28T03:09:15.116Z,2.85
2023-01-28T03:12:05.497Z,2.50
2023-01-28T03:14:53.617Z,2.20
2023-01-28T03:17:48.027Z,3.08
2023-01-28T03:20:34.217Z,2.35
2023-01-28T03:23:28.976Z,2.67
2023-01-28T03:26:19.507Z,2.25
2023-01-28T03:29:08.188Z,2.07
2023-01-28T03:31:54.929Z,1.85
2023-01-28T03:34:41.624Z,2.08
2023-01-28T03:37:09.845Z,1.88
2023-01-28T03:39:53.550Z,1.70
2023-01-28T03:42:20.692Z,1.98
2023-01-28T03:45:21.536Z,1.48
2023-01-28T03:47:49.692Z,1.35
2023-01-28T03:50:17.033Z,1.55
2023-01-28T03:53:14.932Z,2.75
2023-01-28T03:55:49.955Z,2.10
2023-01-28T03:58:18.883Z,1.85
2023-01-28T04:00:49.279Z,1.55
2023-01-28T04:03:20.429Z,1.83
2023-01-28T04:06:13.403Z,1.67
2023-01-28T04:08:59.805Z,1.65
2023-01-28T04:11:40.572Z,2.00
2023-01-28T04:14:12.204Z,1.38
2023-01-28T04:16:59.648Z,1.58
2023-01-28T04:19:29.332Z,1.67
2023-01-28T04:21:57.252Z,1.33
2023-01-28T04:24:28.859Z,1.27
2023-01-28T04:26:58.727Z,1.00
2023-01-28T04:29:29.069Z,1.13
2023-01-28T04:32:01.104Z,1.25
2023-01-28T04:34:38.721Z,1.23
2023-01-28T04:37:17.906Z,1.20
2023-01-28T04:39:59.035Z,1.00
2023-01-28T04:42:53.937Z,1.00
2023-01-28T04:45:31.141Z,1.40
2023-01-28T04:48:21.048Z,1.60
2023-01-28T04:51:20.158Z,1.73
2023-01-28T04:53:58.304Z,2.08
2023-01-28T04:56:29.115Z,2.10
2023-01-28T04:58:59.944Z,1.80
2023-01-28T05:01:27.927Z,1.63
2023-01-28T05:03:55.735Z,1.83
2023-01-28T05:06:29.057Z,2.10
2023-01-28T05:09:02.146Z,2.47
2023-01-28T05:11:30.434Z,1.75
2023-01-28T05:14:02.487Z,2.00
2023-01-28T05:16:35.393Z,2.20
2023-01-28T05:19:04.068Z,2.33
2023-01-28T05:21:40.550Z,2.50
2023-01-28T05:24:16.063Z,2.05
2023-01-28T05:26:48.923Z,2.22
2023-01-28T05:29:16.080Z,2.53
2023-01-28T05:31:43.601Z,3.08
2023-01-28T05:34:10.748Z,2.92
2023-01-28T05:36:37.916Z,2.45
2023-01-28T05:39:16.868Z,2.60
2023-01-28T05:41:44.762Z,2.40
2023-01-28T05:44:12.908Z,2.13
2023-01-28T05:47:00.402Z,2.67
2023-01-28T05:49:46.515Z,1.90
2023-01-28T05:52:32.681Z,3.40
2023-01-28T05:55:01.336Z,2.60
2023-01-28T05:57:41.489Z,2.40
2023-01-28T06:00:10.213Z,2.10
2023-01-28T06:02:43.842Z,2.28
2023-01-28T06:05:13.952Z,3.35
2023-01-28T06:07:44.307Z,2.67
2023-01-28T06:10:12.089Z,2.65
2023-01-28T06:12:40.023Z,2.30
2023-01-28T06:15:34.403Z,3.10
2023-01-28T06:18:19.760Z,3.03
2023-01-28T06:20:50.310Z,3.00
2023-01-28T06:23:17.797Z,3.03
2023-01-28T06:25:44.930Z,2.70
2023-01-28T06:28:14.549Z,3.13
2023-01-28T06:30:41.672Z,2.88
2023-01-28T06:33:08.832Z,2.40
2023-01-28T06:35:36.810Z,2.15
2023-01-28T06:38:07.174Z,2.70
2023-01-28T06:40:34.503Z,2.13
2023-01-28T06:43:01.773Z,2.10
2023-01-28T06:45:28.944Z,2.50
2023-01-28T06:47:56.116Z,2.63
2023-01-28T06:50:23.250Z,2.70
2023-01-28T06:52:50.427Z,2.97
2023-01-28T06:55:17.585Z,2.28
2023-01-28T06:57:45.745Z,2.55
2023-01-28T07:00:15.982Z,2.38
2023-01-28T07:02:43.492Z,3.45
2023-01-28T07:05:11.124Z,2.60
2023-01-28T07:07:40.754Z,3.00
2023-01-28T07:10:09.959Z,3.35
2023-01-28T07:12:37.151Z,2.55
2023-01-28T07:15:04.741Z,2.40
2023-01-28T07:17:31.944Z,2.72
2023-01-28T07:20:01.929Z,3.00
2023-01-28T07:22:29.041Z,2.60
2023-01-28T07:24:56.124Z,2.53
2023-01-28T07:27:23.251Z,2.30
2023-01-28T07:29:50.373Z,2.38
2023-01-28T07:32:18.020Z,2.40
2023-01-28T07:34:45.853Z,2.67
2023-01-28T07:37:16.087Z,2.65
2023-01-28T07:39:43.241Z,2.60
2023-01-28T07:42:13.892Z,2.70
2023-01-28T07:44:46.906Z,3.33
2023-01-28T07:47:14.131Z,3.33
2023-01-28T07:49:44.317Z,4.10
2023-01-28T07:52:11.680Z,2.75
2023-01-28T07:54:39.070Z,3.72
2023-01-28T07:57:12.014Z,2.70
2023-01-28T07:59:39.246Z,3.97
2023-01-28T08:02:06.610Z,3.00
2023-01-28T08:04:33.840Z,3.25
2023-01-28T08:07:01.100Z,3.17
2023-01-28T08:09:29.373Z,2.97
2023-01-28T08:11:56.565Z,3.28
2023-01-28T08:14:23.773Z,3.05
2023-01-28T08:16:53.991Z,3.50
2023-01-28T08:19:21.961Z,4.28
2023-01-28T08:21:49.222Z,5.32
2023-01-28T08:24:17.306Z,4.43
2023-01-28T08:26:44.860Z,5.65
2023-01-28T08:29:11.924Z,4.47
2023-01-28T08:31:39.067Z,4.30
2023-01-28T08:34:06.214Z,4.03
2023-01-28T08:36:35.752Z,4.45
2023-01-28T08:39:02.882Z,4.15
2023-01-28T08:41:30.942Z,4.75
2023-01-28T08:43:59.031Z,4.47
2023-01-28T08:46:26.403Z,4.45
2023-01-28T08:48:53.573Z,4.47
2023-01-28T08:51:20.735Z,4.50
2023-01-28T08:53:47.839Z,4.25
2023-01-28T08:56:15.364Z,5.90
2023-01-28T08:58:42.502Z,4.28
2023-01-28T09:01:12.667Z,4.53
2023-01-28T09:03:42.252Z,3.83
2023-01-28T09:06:09.464Z,4.30
2023-01-28T09:08:36.692Z,4.50
2023-01-28T09:11:03.942Z,4.57
2023-01-28T09:13:31.312Z,3.78
2023-01-28T09:15:58.473Z,4.78
2023-01-28T09:18:25.666Z,4.25
2023-01-28T09:20:52.787Z,4.35
2023-01-28T09:23:19.965Z,4.15
2023-01-28T09:25:47.076Z,4.22
2023-01-28T09:28:14.200Z,4.20
2023-01-28T09:30:41.382Z,4.38
2023-01-28T09:33:08.999Z,4.35
2023-01-28T09:35:36.976Z,3.95
2023-01-28T09:38:04.279Z,4.72
2023-01-28T09:40:58.008Z,4.25
2023-01-28T09:44:14.714Z,4.75
2023-01-28T09:46:45.778Z,4.50
2023-01-28T09:49:34.566Z,4.95
2023-01-28T09:52:01.765Z,6.47
2023-01-28T09:54:44.155Z,6.30
2023-01-28T09:59:41.256Z,4.78
2023-01-28T10:02:56.827Z,5.90
2023-01-28T10:06:05.879Z,5.85
2023-01-28T10:08:56.235Z,5.38
2023-01-28T10:11:26.061Z,5.10
2023-01-28T10:14:20.380Z,4.78
2023-01-28T10:16:55.074Z,5.80
2023-01-28T10:19:24.336Z,5.93
2023-01-28T10:22:05.288Z,5.50
2023-01-28T10:24:38.481Z,6.07
2023-01-28T10:27:24.204Z,5.97
2023-01-28T10:29:53.141Z,5.82
2023-01-28T10:32:27.118Z,6.70
2023-01-28T10:34:54.390Z,7.07
2023-01-28T10:37:24.537Z,6.28
2023-01-28T10:39:55.746Z,5.35
2023-01-28T10:42:38.167Z,6.22
2023-01-28T10:45:25.620Z,5.78
2023-01-28T10:48:26.723Z,6.28
2023-01-28T10:51:02.781Z,6.53
2023-01-28T10:53:37.133Z,5.75
2023-01-28T10:56:15.943Z,6.28
2023-01-28T10:59:01.218Z,5.95
2023-01-28T11:01:53.210Z,6.28
2023-01-28T11:04:25.215Z,5.57
2023-01-28T11:07:06.602Z,6.78
2023-01-28T11:09:36.528Z,6.32
2023-01-28T11:12:27.037Z,7.25
2023-01-28T11:15:03.498Z,7.47
2023-01-28T11:17:39.313Z,7.50
2023-01-28T11:20:13.754Z,9.52
2023-01-28T11:22:45.416Z,8.70
2023-01-28T11:25:30.736Z,7.85
2023-01-28T11:27:59.788Z,8.77
2023-01-28T11:30:30.525Z,8.95
2023-01-28T11:33:38.195Z,9.20
2023-01-28T11:36:28.767Z,9.55
2023-01-28T11:38:58.850Z,7.30
2023-01-28T11:41:34.433Z,9.30
2023-01-28T11:44:16.318Z,10.98
2023-01-28T11:46:54.705Z,10.45
2023-01-28T11:49:27.073Z,9.88
2023-01-28T11:52:00.236Z,9.35
2023-01-28T11:54:46.089Z,10.20
2023-01-28T11:57:31.731Z,10.52
2023-01-28T12:00:17.900Z,9.07
2023-01-28T12:02:55.382Z,9.68
2023-01-28T12:05:40.306Z,10.68
2023-01-28T12:08:38.282Z,8.70
2023-01-28T12:11:47.626Z,9.13
2023-01-28T12:14:22.497Z,13.30
2023-01-28T12:17:20.279Z,11.02
2023-01-28T12:19:53.107Z,9.55
2023-01-28T12:22:38.379Z,9.02
2023-01-28T12:25:17.292Z,8.57
2023-01-28T12:27:54.486Z,8.45
2023-01-28T12:30:32.322Z,7.85
2023-01-28T12:33:21.254Z,7.95
2023-01-28T12:36:07.284Z,7.32
2023-01-28T12:38:46.678Z,8.00
2023-01-28T12:41:28.471Z,8.65
2023-01-28T12:44:07.698Z,9.52
2023-01-28T12:46:52.309Z,8.23
2023-01-28T12:49:22.041Z,7.30
2023-01-28T12:52:08.557Z,8.70
2023-01-28T12:54:46.922Z,8.38
2023-01-28T12:57:22.028Z,8.15
2023-01-28T12:59:54.629Z,6.53
2023-01-28T13:02:31.079Z,7.20
2023-01-28T13:05:21.059Z,7.53
2023-01-28T13:08:06.759Z,7.18
2023-01-28T13:10:43.845Z,6.78
2023-01-28T13:13:25.708Z,6.88
2023-01-28T13:15:52.992Z,5.53
2023-01-28T13:18:41.097Z,8.00
2023-01-28T13:21:12.386Z,7.85
2023-01-28T13:23:46.566Z,8.43
2023-01-28T13:26:20.059Z,7.88
2023-01-28T13:28:52.229Z,7.78
2023-01-28T13:31:24.478Z,7.85
2023-01-28T13:36:53.895Z,7.78
2023-01-28T13:39:26.502Z,7.32
2023-01-28T13:42:15.481Z,7.78
2023-01-28T13:44:42.609Z,8.30
2023-01-28T13:47:09.649Z,10.02
2023-01-28T13:49:44.362Z,10.88
2023-01-28T13:52:11.458Z,9.23
2023-01-28T13:54:44.147Z,8.73
2023-01-28T13:57:40.302Z,10.18
2023-01-28T14:00:29.036Z,8.15
2023-01-28T14:03:22.407Z,9.02
2023-01-28T14:06:20.557Z,9.23
2023-01-28T14:09:12.897Z,9.10
2023-01-28T14:12:12.705Z,9.30
2023-01-28T14:14:58.896Z,10.45
2023-01-28T14:17:31.827Z,8.63
2023-01-28T14:20:00.948Z,8.93
2023-01-28T14:22:28.254Z,9.23
2023-01-28T14:25:00.207Z,10.15
2023-01-28T14:27:35.372Z,9.68
2023-01-28T14:30:24.679Z,10.48
2023-01-28T14:32:54.371Z,9.80
2023-01-28T14:35:30.562Z,9.75
2023-01-28T14:37:59.355Z,10.50
2023-01-28T14:40:29.157Z,9.32
2023-01-28T14:42:57.930Z,8.73
2023-01-28T14:45:51.538Z,9.25
2023-01-28T14:48:42.725Z,8.95
2023-01-28T14:51:32.655Z,8.25
2023-01-28T14:54:25.175Z,7.55
2023-01-28T14:59:49.700Z,7.57
2023-01-28T15:02:22.805Z,7.82
2023-01-28T15:04:51.529Z,7.38
2023-01-28T15:07:23.086Z,7.30
2023-01-28T15:10:17.665Z,8.15
2023-01-28T15:12:57.680Z,7.93
2023-01-28T15:15:35.044Z,6.95
2023-01-28T15:18:06.282Z,7.03
2023-01-28T15:20:34.807Z,7.88
2023-01-28T15:23:06.303Z,7.10
2023-01-28T15:25:36.364Z,8.48
2023-01-28T15:28:03.626Z,7.65
2023-01-28T15:30:32.742Z,9.35
2023-01-28T15:33:13.707Z,7.38
2023-01-28T15:35:47.991Z,8.10
2023-01-28T15:38:17.737Z,9.68
2023-01-28T15:40:49.108Z,7.03
2023-01-28T15:43:22.612Z,8.90
2023-01-28T15:45:55.367Z,7.72
2023-01-28T15:48:34.802Z,7.72
2023-01-28T15:51:17.398Z,8.15
2023-01-28T15:53:47.685Z,7.93
2023-01-28T15:56:15.957Z,9.02
2023-01-28T15:58:43.533Z,8.50
2023-01-28T16:01:10.720Z,9.55
2023-01-28T16:03:40.498Z,8.50
2023-01-28T16:06:09.968Z,8.68
2023-01-28T16:08:46.528Z,8.82
2023-01-28T16:11:20.786Z,8.98
2023-01-28T16:13:50.489Z,9.35
2023-01-28T16:16:38.823Z,8.40
2023-01-28T16:19:07.448Z,9.27
2023-01-28T16:21:38.522Z,8.38
2023-01-28T16:24:24.880Z,9.45
2023-01-28T16:27:03.606Z,9.05
2023-01-28T16:29:32.220Z,7.93
2023-01-28T16:32:00.804Z,8.52
2023-01-28T16:34:27.983Z,7.90
2023-01-28T16:37:01.812Z,10.20
2023-01-28T16:39:30.354Z,9.52
2023-01-28T16:41:58.380Z,8.93
2023-01-28T16:44:25.529Z,9.10
2023-01-28T16:46:52.805Z,8.05
2023-01-28T16:49:19.976Z,8.88
2023-01-28T16:51:47.192Z,9.18
2023-01-28T16:54:16.642Z,8.90
2023-01-28T16:56:45.957Z,9.75
2023-01-28T16:59:15.800Z,9.32
2023-01-28T17:01:44.113Z,10.45
2023-01-28T17:04:13.069Z,8.93
2023-01-28T17:06:45.738Z,8.68
2023-01-28T17:09:14.549Z,8.85
2023-01-28T17:11:42.308Z,9.25
2023-01-28T17:14:10.702Z,9.63
2023-01-28T17:16:38.172Z,9.23
2023-01-28T17:19:05.580Z,9.43
2023-01-28T17:21:32.750Z,9.43
2023-01-28T17:24:01.463Z,8.50
2023-01-28T17:26:31.463Z,10.48
2023-01-28T17:28:58.624Z,9.38
2023-01-28T17:31:26.649Z,8.65
2023-01-28T17:33:55.595Z,8.90
2023-01-28T17:36:23.941Z,9.23
2023-01-28T17:38:51.646Z,8.25
2023-01-28T17:41:19.436Z,9.25
2023-01-28T17:43:54.380Z,9.13
2023-01-28T17:46:22.547Z,7.82
2023-01-28T17:48:49.713Z,8.88
2023-01-28T17:51:17.280Z,8.95
2023-01-28T17:53:52.228Z,7.82
2023-01-28T17:56:24.103Z,9.07
2023-01-28T17:58:59.501Z,8.50
2023-01-28T18:01:27.168Z,9.75
2023-01-28T18:03:55.128Z,8.38
2023-01-28T18:06:22.614Z,9.07
2023-01-28T18:08:50.041Z,8.77
2023-01-28T18:11:19.653Z,9.55
2023-01-28T18:13:47.268Z,9.38
2023-01-28T18:16:18.010Z,8.48
2023-01-28T18:18:46.946Z,8.20
2023-01-28T18:21:51.204Z,7.60
2023-01-28T18:24:19.462Z,7.03
2023-01-28T18:26:46.818Z,7.88
2023-01-28T18:29:17.104Z,7.40
2023-01-28T18:31:44.680Z,7.20
2023-01-28T18:34:11.980Z,7.60
2023-01-28T18:36:41.633Z,7.03
2023-01-28T18:39:13.370Z,7.72
2023-01-28T18:41:41.079Z,7.43
2023-01-28T18:44:13.298Z,9.60
2023-01-28T18:49:08.079Z,8.20
2023-01-28T18:51:35.379Z,7.28
2023-01-28T18:54:05.068Z,8.05
2023-01-28T18:56:35.327Z,7.68
2023-01-28T18:59:05.104Z,8.85
2023-01-28T19:01:35.559Z,8.57
2023-01-28T19:04:03.568Z,11.77
2023-01-28T19:06:32.161Z,9.45
2023-01-28T19:09:02.607Z,11.95
2023-01-28T19:11:30.572Z,12.25
2023-01-28T19:13:58.091Z,14.48
2023-01-28T19:16:26.151Z,11.00
2023-01-28T19:18:54.984Z,13.43
2023-01-28T19:21:23.060Z,14.02
2023-01-28T19:23:55.952Z,12.70
2023-01-28T19:26:24.156Z,13.55
2023-01-28T19:28:51.821Z,13.43
2023-01-28T19:31:20.835Z,11.20
2023-01-28T19:33:49.018Z,10.10
2023-01-28T19:36:16.499Z,11.45
2023-01-28T19:38:43.753Z,13.93
2023-01-28T19:41:13.638Z,11.27
2023-01-28T19:43:40.837Z,11.35
2023-01-28T19:46:08.307Z,13.18
2023-01-28T19:48:35.552Z,14.63
2023-01-28T19:51:09.729Z,12.75
2023-01-28T19:53:38.095Z,13.50
2023-01-28T19:56:09.263Z,13.18
2023-01-28T19:58:38.969Z,10.90
2023-01-28T20:01:07.679Z,9.90
2023-01-28T20:03:37.927Z,12.48
2023-01-28T20:06:07.641Z,10.60
2023-01-28T20:08:36.782Z,11.20
2023-01-28T20:11:05.965Z,11.48
2023-01-28T20:13:33.997Z,10.48
2023-01-28T20:16:06.315Z,9.68
2023-01-28T20:18:34.691Z,9.48
2023-01-28T20:21:02.327Z,8.23
2023-01-28T20:23:29.550Z,8.18
2023-01-28T20:25:58.804Z,7.97
2023-01-28T20:28:26.081Z,8.40
2023-01-28T20:30:53.968Z,9.60
2023-01-28T20:33:21.691Z,8.73
2023-01-28T20:35:48.925Z,9.02
2023-01-28T20:38:16.807Z,7.38
2023-01-28T20:40:44.001Z,6.53
2023-01-28T20:43:14.126Z,5.85
2023-01-28T20:45:41.391Z,6.28
2023-01-28T20:48:08.546Z,6.53
2023-01-28T20:50:36.114Z,7.78
2023-01-28T20:53:04.280Z,8.60
2023-01-28T20:55:32.343Z,8.70
2023-01-28T20:57:59.503Z,8.38
2023-01-28T21:00:26.893Z,8.98
2023-01-28T21:02:54.123Z,9.48
2023-01-28T21:05:21.276Z,9.68
2023-01-28T21:07:48.463Z,8.73
2023-01-28T21:10:16.062Z,7.95
2023-01-28T21:12:43.437Z,7.68
2023-01-28T21:15:11.049Z,6.95
2023-01-28T21:17:38.339Z,7.30
2023-01-28T21:20:05.987Z,8.40
2023-01-28T21:22:33.080Z,6.38
2023-01-28T21:25:09.450Z,8.18
2023-01-28T21:27:39.396Z,8.60
2023-01-28T21:30:07.276Z,8.85
2023-01-28T21:32:34.494Z,8.40
2023-01-28T21:35:01.716Z,8.15
2023-01-28T21:37:29.045Z,9.23
2023-01-28T21:39:56.145Z,7.28
2023-01-28T21:42:23.288Z,9.65
2023-01-28T21:44:50.441Z,9.70
2023-01-28T21:47:17.761Z,8.25
2023-01-28T21:49:44.957Z,7.80
2023-01-28T21:52:12.948Z,6.88
2023-01-28T21:54:40.137Z,7.03
2023-01-28T21:57:07.349Z,9.43
2023-01-28T21:59:38.137Z,9.63
2023-01-28T22:02:15.138Z,8.43
2023-01-28T22:04:47.784Z,9.68
2023-01-28T22:07:17.375Z,9.20
2023-01-28T22:09:45.739Z,8.88
2023-01-28T22:12:15.247Z,12.13
2023-01-28T22:14:44.063Z,9.13
2023-01-28T22:17:12.037Z,10.68
2023-01-28T22:19:40.058Z,10.32
2023-01-28T22:22:07.572Z,11.68
2023-01-28T22:24:34.763Z,10.85
2023-01-28T22:27:04.022Z,10.65
2023-01-28T22:29:31.806Z,9.95
2023-01-28T22:31:59.243Z,11.93
2023-01-28T22:34:26.727Z,11.70
2023-01-28T22:36:54.124Z,10.23
2023-01-28T22:39:21.385Z,10.55
2023-01-28T22:41:48.650Z,10.02
2023-01-28T22:44:16.162Z,9.95
2023-01-28T22:46:43.355Z,9.82
2023-01-28T22:49:12.121Z,9.95
2023-01-28T22:51:39.354Z,10.80
2023-01-28T22:54:11.630Z,10.13
2023-01-28T22:56:38.793Z,10.45
2023-01-28T22:59:06.195Z,10.40
2023-01-28T23:01:33.676Z,10.07
2023-01-28T23:04:00.873Z,11.18
2023-01-28T23:06:28.619Z,11.07
2023-01-28T23:08:56.489Z,11.70
2023-01-28T23:11:28.335Z,11.90
2023-01-28T23:14:19.859Z,11.05
2023-01-28T23:17:06.030Z,11.38
2023-01-28T23:19:52.102Z,11.75
2023-01-28T23:22:48.859Z,11.25
2023-01-28T23:25:16.508Z,10.18
2023-01-28T23:27:44.344Z,9.98
2023-01-28T23:30:12.486Z,10.40
2023-01-28T23:32:44.137Z,10.25
2023-01-28T23:35:12.225Z,10.82
2023-01-28T23:37:39.438Z,10.63
2023-01-28T23:40:07.668Z,10.45
2023-01-28T23:42:34.870Z,12.07
2023-01-28T23:45:02.094Z,11.82
2023-01-28T23:47:29.244Z,13.63
2023-01-28T23:49:56.472Z,11.60
2023-01-28T23:52:24.066Z,11.65
2023-01-28T23:54:51.283Z,10.27
2023-01-28T23:57:21.579Z,12.43
2023-01-28T23:59:48.669Z,12.85
